sensor_id;sensor_type;location;lat;lon;timestamp;pressure;altitude;pressure_sealevel;temperature;humidity
37170;BME280;23062;13.952;100.608;2023-01-08T00:01:20;1013.52;;;27.68;47.30
37170;BME280;23062;13.952;100.608;2023-01-08T00:05:46;1013.60;;;27.64;47.91
37170;BME280;23062;13.952;100.608;2023-01-08T00:10:12;1013.68;;;27.57;48.06
37170;BME280;23062;13.952;100.608;2023-01-08T00:14:39;1013.74;;;27.50;47.15
37170;BME280;23062;13.952;100.608;2023-01-08T00:19:05;1013.80;;;27.55;46.94
37170;BME280;23062;13.952;100.608;2023-01-08T00:23:33;1013.87;;;27.71;45.40
37170;BME280;23062;13.952;100.608;2023-01-08T00:28:00;1013.89;;;27.78;45.75
37170;BME280;23062;13.952;100.608;2023-01-08T00:32:26;1013.96;;;27.75;45.04
37170;BME280;23062;13.952;100.608;2023-01-08T00:36:59;1013.98;;;27.75;45.02
37170;BME280;23062;13.952;100.608;2023-01-08T00:41:25;1014.10;;;27.82;45.17
37170;BME280;23062;13.952;100.608;2023-01-08T00:45:51;1014.16;;;27.77;44.01
37170;BME280;23062;13.952;100.608;2023-01-08T00:50:18;1014.21;;;27.84;43.92
37170;BME280;23062;13.952;100.608;2023-01-08T00:54:44;1014.27;;;27.93;43.56
37170;BME280;23062;13.952;100.608;2023-01-08T00:59:10;1014.41;;;28.01;44.04
37170;BME280;23062;13.952;100.608;2023-01-08T01:03:36;1014.50;;;28.00;43.70
37170;BME280;23062;13.952;100.608;2023-01-08T01:08:03;1014.53;;;28.01;43.10
37170;BME280;23062;13.952;100.608;2023-01-08T01:12:30;1014.61;;;28.11;42.95
37170;BME280;23062;13.952;100.608;2023-01-08T01:16:56;1014.64;;;28.14;43.20
37170;BME280;23062;13.952;100.608;2023-01-08T01:21:28;1014.72;;;28.24;44.19
37170;BME280;23062;13.952;100.608;2023-01-08T01:25:53;1014.74;;;28.18;43.17
37170;BME280;23062;13.952;100.608;2023-01-08T01:30:20;1014.78;;;28.09;42.94
37170;BME280;23062;13.952;100.608;2023-01-08T01:34:46;1014.87;;;28.06;44.49
37170;BME280;23062;13.952;100.608;2023-01-08T01:39:12;1014.84;;;28.09;43.57
37170;BME280;23062;13.952;100.608;2023-01-08T01:43:42;1014.86;;;28.28;43.32
37170;BME280;23062;13.952;100.608;2023-01-08T01:48:13;1014.85;;;28.37;43.26
37170;BME280;23062;13.952;100.608;2023-01-08T01:52:45;1014.85;;;28.44;43.44
37170;BME280;23062;13.952;100.608;2023-01-08T01:57:12;1014.84;;;28.48;43.12
37170;BME280;23062;13.952;100.608;2023-01-08T02:01:39;1014.82;;;28.49;43.11
37170;BME280;23062;13.952;100.608;2023-01-08T02:06:11;1014.85;;;28.55;43.47
37170;BME280;23062;13.952;100.608;2023-01-08T02:15:15;1014.92;;;28.61;43.60
37170;BME280;23062;13.952;100.608;2023-01-08T02:19:48;1014.93;;;28.65;43.82
37170;BME280;23062;13.952;100.608;2023-01-08T02:24:42;1014.96;;;28.68;43.92
37170;BME280;23062;13.952;100.608;2023-01-08T02:29:11;1015.04;;;28.71;43.44
37170;BME280;23062;13.952;100.608;2023-01-08T02:33:38;1015.06;;;28.71;43.29
37170;BME280;23062;13.952;100.608;2023-01-08T02:38:05;1015.05;;;28.71;43.21
37170;BME280;23062;13.952;100.608;2023-01-08T02:51:50;1015.01;;;28.76;43.35
37170;BME280;23062;13.952;100.608;2023-01-08T02:56:22;1014.94;;;28.76;42.94
37170;BME280;23062;13.952;100.608;2023-01-08T03:00:50;1015.01;;;28.78;43.39
37170;BME280;23062;13.952;100.608;2023-01-08T03:05:21;1014.99;;;28.78;43.26
37170;BME280;23062;13.952;100.608;2023-01-08T03:09:46;1015.01;;;28.79;43.64
37170;BME280;23062;13.952;100.608;2023-01-08T03:18:53;1015.01;;;28.82;43.56
37170;BME280;23062;13.952;100.608;2023-01-08T03:23:20;1014.98;;;28.82;43.44
37170;BME280;23062;13.952;100.608;2023-01-08T03:27:56;1014.97;;;28.82;43.28
37170;BME280;23062;13.952;100.608;2023-01-08T03:32:20;1014.98;;;28.83;43.35
37170;BME280;23062;13.952;100.608;2023-01-08T03:36:49;1014.98;;;28.82;43.55
37170;BME280;23062;13.952;100.608;2023-01-08T03:41:19;1014.92;;;28.83;43.50
37170;BME280;23062;13.952;100.608;2023-01-08T03:45:53;1014.90;;;28.83;43.63
37170;BME280;23062;13.952;100.608;2023-01-08T03:50:22;1014.86;;;28.84;43.67
37170;BME280;23062;13.952;100.608;2023-01-08T03:54:50;1014.80;;;28.84;43.19
37170;BME280;23062;13.952;100.608;2023-01-08T03:59:18;1014.76;;;28.85;43.61
37170;BME280;23062;13.952;100.608;2023-01-08T04:03:44;1014.74;;;28.87;43.72
37170;BME280;23062;13.952;100.608;2023-01-08T04:08:11;1014.71;;;28.87;43.51
37170;BME280;23062;13.952;100.608;2023-01-08T04:12:39;1014.64;;;28.87;43.61
37170;BME280;23062;13.952;100.608;2023-01-08T04:17:05;1014.60;;;28.89;43.65
37170;BME280;23062;13.952;100.608;2023-01-08T04:21:31;1014.57;;;28.90;43.67
37170;BME280;23062;13.952;100.608;2023-01-08T04:25:58;1014.50;;;28.90;43.50
37170;BME280;23062;13.952;100.608;2023-01-08T04:30:24;1014.40;;;28.91;43.49
37170;BME280;23062;13.952;100.608;2023-01-08T04:34:50;1014.41;;;28.92;43.55
37170;BME280;23062;13.952;100.608;2023-01-08T04:39:17;1014.39;;;28.92;43.57
37170;BME280;23062;13.952;100.608;2023-01-08T04:43:44;1014.33;;;28.93;43.51
37170;BME280;23062;13.952;100.608;2023-01-08T04:48:11;1014.27;;;28.92;43.51
37170;BME280;23062;13.952;100.608;2023-01-08T04:52:37;1014.23;;;28.94;43.22
37170;BME280;23062;13.952;100.608;2023-01-08T04:57:03;1014.13;;;28.91;42.62
37170;BME280;23062;13.952;100.608;2023-01-08T05:01:29;1014.11;;;28.83;41.47
37170;BME280;23062;13.952;100.608;2023-01-08T05:05:55;1014.01;;;28.86;41.58
37170;BME280;23062;13.952;100.608;2023-01-08T05:10:23;1013.91;;;28.88;41.15
37170;BME280;23062;13.952;100.608;2023-01-08T05:14:49;1013.84;;;28.83;41.14
37170;BME280;23062;13.952;100.608;2023-01-08T05:19:16;1013.84;;;28.88;41.20
37170;BME280;23062;13.952;100.608;2023-01-08T05:23:44;1013.76;;;28.79;40.74
37170;BME280;23062;13.952;100.608;2023-01-08T05:28:11;1013.71;;;28.75;41.46
37170;BME280;23062;13.952;100.608;2023-01-08T05:32:37;1013.61;;;28.80;40.99
37170;BME280;23062;13.952;100.608;2023-01-08T05:37:03;1013.55;;;28.83;41.06
37170;BME280;23062;13.952;100.608;2023-01-08T05:41:30;1013.42;;;28.83;40.97
37170;BME280;23062;13.952;100.608;2023-01-08T05:46:00;1013.42;;;28.83;41.21
37170;BME280;23062;13.952;100.608;2023-01-08T05:50:26;1013.33;;;28.82;41.10
37170;BME280;23062;13.952;100.608;2023-01-08T05:54:52;1013.31;;;28.79;41.47
37170;BME280;23062;13.952;100.608;2023-01-08T05:59:19;1013.19;;;28.85;41.09
37170;BME280;23062;13.952;100.608;2023-01-08T06:03:46;1013.05;;;28.85;41.48
37170;BME280;23062;13.952;100.608;2023-01-08T06:08:12;1012.93;;;28.90;41.11
37170;BME280;23062;13.952;100.608;2023-01-08T06:12:38;1012.88;;;28.93;41.14
37170;BME280;23062;13.952;100.608;2023-01-08T06:17:05;1012.72;;;28.98;40.57
37170;BME280;23062;13.952;100.608;2023-01-08T06:21:31;1012.63;;;28.96;40.58
37170;BME280;23062;13.952;100.608;2023-01-08T06:26:00;1012.61;;;28.97;40.54
37170;BME280;23062;13.952;100.608;2023-01-08T06:30:28;1012.55;;;29.01;40.13
37170;BME280;23062;13.952;100.608;2023-01-08T06:34:55;1012.42;;;29.00;40.14
37170;BME280;23062;13.952;100.608;2023-01-08T06:39:21;1012.47;;;29.00;40.63
37170;BME280;23062;13.952;100.608;2023-01-08T06:43:47;1012.38;;;28.96;40.61
37170;BME280;23062;13.952;100.608;2023-01-08T06:48:14;1012.27;;;28.93;40.48
37170;BME280;23062;13.952;100.608;2023-01-08T06:52:40;1012.14;;;28.95;40.51
37170;BME280;23062;13.952;100.608;2023-01-08T06:57:06;1012.03;;;28.97;40.61
37170;BME280;23062;13.952;100.608;2023-01-08T07:01:33;1011.94;;;28.98;40.52
37170;BME280;23062;13.952;100.608;2023-01-08T07:06:01;1011.94;;;28.96;40.50
37170;BME280;23062;13.952;100.608;2023-01-08T07:10:27;1011.88;;;28.93;40.75
37170;BME280;23062;13.952;100.608;2023-01-08T07:14:54;1011.84;;;28.96;40.78
37170;BME280;23062;13.952;100.608;2023-01-08T07:19:21;1011.77;;;28.99;40.80
37170;BME280;23062;13.952;100.608;2023-01-08T07:23:48;1011.76;;;28.97;41.10
37170;BME280;23062;13.952;100.608;2023-01-08T07:28:15;1011.70;;;28.99;41.44
37170;BME280;23062;13.952;100.608;2023-01-08T07:32:42;1011.68;;;29.05;41.47
37170;BME280;23062;13.952;100.608;2023-01-08T07:37:09;1011.62;;;29.07;41.45
37170;BME280;23062;13.952;100.608;2023-01-08T07:41:35;1011.60;;;29.09;41.43
37170;BME280;23062;13.952;100.608;2023-01-08T07:46:04;1011.59;;;29.08;41.47
37170;BME280;23062;13.952;100.608;2023-01-08T07:50:31;1011.56;;;29.08;41.45
37170;BME280;23062;13.952;100.608;2023-01-08T07:54:57;1011.55;;;29.06;41.05
37170;BME280;23062;13.952;100.608;2023-01-08T07:59:23;1011.55;;;29.02;41.58
37170;BME280;23062;13.952;100.608;2023-01-08T08:03:50;1011.54;;;28.98;41.67
37170;BME280;23062;13.952;100.608;2023-01-08T08:08:16;1011.51;;;28.98;41.89
37170;BME280;23062;13.952;100.608;2023-01-08T08:12:44;1011.49;;;28.96;42.00
37170;BME280;23062;13.952;100.608;2023-01-08T08:17:10;1011.51;;;28.98;41.98
37170;BME280;23062;13.952;100.608;2023-01-08T08:21:36;1011.41;;;28.95;41.72
37170;BME280;23062;13.952;100.608;2023-01-08T08:26:03;1011.37;;;28.99;42.76
37170;BME280;23062;13.952;100.608;2023-01-08T08:30:31;1011.35;;;29.02;42.68
37170;BME280;23062;13.952;100.608;2023-01-08T08:34:57;1011.37;;;29.07;42.42
37170;BME280;23062;13.952;100.608;2023-01-08T08:39:24;1011.33;;;29.06;42.71
37170;BME280;23062;13.952;100.608;2023-01-08T08:43:50;1011.29;;;29.07;42.38
37170;BME280;23062;13.952;100.608;2023-01-08T08:48:16;1011.24;;;29.05;41.47
37170;BME280;23062;13.952;100.608;2023-01-08T08:52:43;1011.26;;;29.05;41.65
37170;BME280;23062;13.952;100.608;2023-01-08T08:57:12;1011.26;;;29.06;41.78
37170;BME280;23062;13.952;100.608;2023-01-08T09:01:38;1011.22;;;29.04;41.82
37170;BME280;23062;13.952;100.608;2023-01-08T09:06:10;1011.21;;;29.22;41.38
37170;BME280;23062;13.952;100.608;2023-01-08T09:10:40;1011.20;;;29.28;41.32
37170;BME280;23062;13.952;100.608;2023-01-08T09:15:08;1011.22;;;29.29;41.62
37170;BME280;23062;13.952;100.608;2023-01-08T09:19:34;1011.23;;;29.31;41.83
37170;BME280;23062;13.952;100.608;2023-01-08T09:24:02;1011.25;;;29.29;40.90
37170;BME280;23062;13.952;100.608;2023-01-08T09:28:29;1011.29;;;29.33;41.83
37170;BME280;23062;13.952;100.608;2023-01-08T09:33:00;1011.25;;;29.31;41.84
37170;BME280;23062;13.952;100.608;2023-01-08T09:37:27;1011.34;;;29.29;42.14
37170;BME280;23062;13.952;100.608;2023-01-08T09:41:55;1011.38;;;29.32;42.17
37170;BME280;23062;13.952;100.608;2023-01-08T09:46:25;1011.35;;;29.33;43.19
37170;BME280;23062;13.952;100.608;2023-01-08T09:50:52;1011.36;;;29.32;43.61
37170;BME280;23062;13.952;100.608;2023-01-08T09:55:18;1011.38;;;29.31;44.94
37170;BME280;23062;13.952;100.608;2023-01-08T09:59:46;1011.46;;;29.34;44.89
37170;BME280;23062;13.952;100.608;2023-01-08T10:04:18;1011.45;;;29.33;45.07
37170;BME280;23062;13.952;100.608;2023-01-08T10:08:46;1011.48;;;29.32;45.70
37170;BME280;23062;13.952;100.608;2023-01-08T10:13:13;1011.52;;;29.33;44.84
37170;BME280;23062;13.952;100.608;2023-01-08T10:17:48;1011.57;;;29.34;44.99
37170;BME280;23062;13.952;100.608;2023-01-08T10:22:16;1011.59;;;29.31;45.10
37170;BME280;23062;13.952;100.608;2023-01-08T10:26:44;1011.65;;;29.30;44.91
37170;BME280;23062;13.952;100.608;2023-01-08T10:31:17;1011.70;;;29.29;44.92
37170;BME280;23062;13.952;100.608;2023-01-08T10:35:50;1011.77;;;29.27;44.88
37170;BME280;23062;13.952;100.608;2023-01-08T10:40:32;1011.81;;;29.29;44.91
37170;BME280;23062;13.952;100.608;2023-01-08T10:45:02;1011.89;;;29.30;44.92
37170;BME280;23062;13.952;100.608;2023-01-08T10:49:37;1011.91;;;29.32;45.06
37170;BME280;23062;13.952;100.608;2023-01-08T10:54:26;1011.98;;;29.32;45.06
37170;BME280;23062;13.952;100.608;2023-01-08T10:58:43;1012.04;;;29.31;45.08
37170;BME280;23062;13.952;100.608;2023-01-08T11:03:28;1012.15;;;29.31;44.98
37170;BME280;23062;13.952;100.608;2023-01-08T11:07:56;1012.26;;;29.33;44.90
37170;BME280;23062;13.952;100.608;2023-01-08T11:12:41;1012.30;;;29.33;45.19
37170;BME280;23062;13.952;100.608;2023-01-08T11:17:11;1012.30;;;29.33;44.73
37170;BME280;23062;13.952;100.608;2023-01-08T11:21:38;1012.33;;;29.31;44.54
37170;BME280;23062;13.952;100.608;2023-01-08T11:26:16;1012.38;;;29.32;44.91
37170;BME280;23062;13.952;100.608;2023-01-08T11:30:43;1012.49;;;29.34;44.95
37170;BME280;23062;13.952;100.608;2023-01-08T11:35:19;1012.51;;;29.32;44.71
37170;BME280;23062;13.952;100.608;2023-01-08T11:39:46;1012.54;;;29.34;44.92
37170;BME280;23062;13.952;100.608;2023-01-08T11:44:32;1012.60;;;29.34;44.87
37170;BME280;23062;13.952;100.608;2023-01-08T11:58:19;1012.74;;;29.08;45.77
37170;BME280;23062;13.952;100.608;2023-01-08T12:02:55;1012.78;;;29.02;46.20
37170;BME280;23062;13.952;100.608;2023-01-08T12:16:54;1013.07;;;28.96;46.60
37170;BME280;23062;13.952;100.608;2023-01-08T12:21:31;1013.16;;;28.99;46.62
37170;BME280;23062;13.952;100.608;2023-01-08T12:26:02;1013.16;;;28.99;46.71
37170;BME280;23062;13.952;100.608;2023-01-08T12:30:50;1013.16;;;28.98;46.72
37170;BME280;23062;13.952;100.608;2023-01-08T12:44:21;1013.37;;;29.01;46.80
37170;BME280;23062;13.952;100.608;2023-01-08T12:48:47;1013.45;;;29.00;46.81
37170;BME280;23062;13.952;100.608;2023-01-08T12:53:27;1013.50;;;29.00;46.72
37170;BME280;23062;13.952;100.608;2023-01-08T12:58:16;1013.54;;;28.96;46.93
37170;BME280;23062;13.952;100.608;2023-01-08T13:02:58;1013.62;;;28.98;47.02
37170;BME280;23062;13.952;100.608;2023-01-08T13:07:27;1013.65;;;29.11;47.02
37170;BME280;23062;13.952;100.608;2023-01-08T13:11:56;1013.71;;;29.28;46.46
37170;BME280;23062;13.952;100.608;2023-01-08T13:16:24;1013.73;;;29.33;46.41
37170;BME280;23062;13.952;100.608;2023-01-08T13:20:58;1013.73;;;29.34;46.51
37170;BME280;23062;13.952;100.608;2023-01-08T13:25:30;1013.83;;;29.37;46.66
37170;BME280;23062;13.952;100.608;2023-01-08T13:29:58;1013.85;;;29.36;47.18
37170;BME280;23062;13.952;100.608;2023-01-08T13:34:40;1013.91;;;29.36;47.24
37170;BME280;23062;13.952;100.608;2023-01-08T13:43:41;1014.07;;;29.36;47.00
37170;BME280;23062;13.952;100.608;2023-01-08T13:48:23;1014.12;;;29.33;46.99
37170;BME280;23062;13.952;100.608;2023-01-08T13:53:00;1014.15;;;29.35;47.08
37170;BME280;23062;13.952;100.608;2023-01-08T13:57:25;1014.21;;;29.34;47.17
37170;BME280;23062;13.952;100.608;2023-01-08T14:01:56;1014.22;;;29.32;47.25
37170;BME280;23062;13.952;100.608;2023-01-08T14:06:26;1014.26;;;29.33;47.30
37170;BME280;23062;13.952;100.608;2023-01-08T14:10:54;1014.26;;;29.32;47.54
37170;BME280;23062;13.952;100.608;2023-01-08T14:15:25;1014.27;;;29.32;47.74
37170;BME280;23062;13.952;100.608;2023-01-08T14:19:52;1014.31;;;29.32;47.58
37170;BME280;23062;13.952;100.608;2023-01-08T14:24:20;1014.32;;;29.31;48.03
37170;BME280;23062;13.952;100.608;2023-01-08T14:28:53;1014.30;;;29.30;47.74
37170;BME280;23062;13.952;100.608;2023-01-08T14:37:51;1014.33;;;29.30;47.98
37170;BME280;23062;13.952;100.608;2023-01-08T14:42:27;1014.37;;;29.29;47.99
37170;BME280;23062;13.952;100.608;2023-01-08T14:47:19;1014.32;;;29.30;48.01
37170;BME280;23062;13.952;100.608;2023-01-08T14:51:42;1014.34;;;29.30;48.13
37170;BME280;23062;13.952;100.608;2023-01-08T14:56:14;1014.35;;;29.29;48.34
37170;BME280;23062;13.952;100.608;2023-01-08T15:00:41;1014.36;;;29.28;48.28
37170;BME280;23062;13.952;100.608;2023-01-08T15:09:58;1014.25;;;29.28;48.48
37170;BME280;23062;13.952;100.608;2023-01-08T15:14:28;1014.26;;;29.27;48.48
37170;BME280;23062;13.952;100.608;2023-01-08T15:19:01;1014.20;;;29.26;48.59
37170;BME280;23062;13.952;100.608;2023-01-08T15:23:34;1014.21;;;29.27;48.71
37170;BME280;23062;13.952;100.608;2023-01-08T15:28:01;1014.19;;;29.26;48.75
37170;BME280;23062;13.952;100.608;2023-01-08T15:32:30;1014.19;;;29.24;48.86
37170;BME280;23062;13.952;100.608;2023-01-08T15:36:58;1014.24;;;29.24;48.93
37170;BME280;23062;13.952;100.608;2023-01-08T15:41:32;1014.24;;;29.24;48.90
37170;BME280;23062;13.952;100.608;2023-01-08T15:46:20;1014.27;;;29.26;48.94
37170;BME280;23062;13.952;100.608;2023-01-08T15:50:47;1014.24;;;29.25;48.94
37170;BME280;23062;13.952;100.608;2023-01-08T15:55:21;1014.18;;;29.24;49.07
37170;BME280;23062;13.952;100.608;2023-01-08T15:59:48;1014.19;;;29.25;48.99
37170;BME280;23062;13.952;100.608;2023-01-08T16:04:15;1014.18;;;29.23;48.93
37170;BME280;23062;13.952;100.608;2023-01-08T16:08:41;1014.14;;;29.23;49.17
37170;BME280;23062;13.952;100.608;2023-01-08T16:13:15;1014.13;;;29.22;49.29
37170;BME280;23062;13.952;100.608;2023-01-08T16:17:42;1014.10;;;29.21;49.25
37170;BME280;23062;13.952;100.608;2023-01-08T16:22:12;1014.11;;;29.21;49.36
37170;BME280;23062;13.952;100.608;2023-01-08T16:26:38;1014.14;;;29.21;49.41
37170;BME280;23062;13.952;100.608;2023-01-08T16:31:05;1014.10;;;29.21;49.41
37170;BME280;23062;13.952;100.608;2023-01-08T16:35:32;1014.07;;;29.21;49.45
37170;BME280;23062;13.952;100.608;2023-01-08T16:39:58;1014.11;;;29.20;49.59
37170;BME280;23062;13.952;100.608;2023-01-08T16:44:25;1014.11;;;29.20;49.56
37170;BME280;23062;13.952;100.608;2023-01-08T16:48:56;1014.11;;;29.19;49.69
37170;BME280;23062;13.952;100.608;2023-01-08T16:53:22;1014.07;;;29.19;49.76
37170;BME280;23062;13.952;100.608;2023-01-08T16:57:49;1014.06;;;29.18;49.80
37170;BME280;23062;13.952;100.608;2023-01-08T17:02:15;1014.06;;;29.18;49.85
37170;BME280;23062;13.952;100.608;2023-01-08T17:06:43;1014.06;;;29.17;49.85
37170;BME280;23062;13.952;100.608;2023-01-08T17:11:12;1014.05;;;29.17;49.90
37170;BME280;23062;13.952;100.608;2023-01-08T17:15:40;1013.97;;;29.16;49.91
37170;BME280;23062;13.952;100.608;2023-01-08T17:20:11;1014.00;;;29.16;49.90
37170;BME280;23062;13.952;100.608;2023-01-08T17:24:37;1014.01;;;29.15;49.96
37170;BME280;23062;13.952;100.608;2023-01-08T17:29:04;1013.99;;;29.15;49.99
37170;BME280;23062;13.952;100.608;2023-01-08T17:33:31;1013.95;;;29.14;49.93
37170;BME280;23062;13.952;100.608;2023-01-08T17:38:00;1013.97;;;29.14;49.97
37170;BME280;23062;13.952;100.608;2023-01-08T17:42:27;1013.96;;;29.13;49.90
37170;BME280;23062;13.952;100.608;2023-01-08T17:46:54;1013.92;;;29.13;49.90
37170;BME280;23062;13.952;100.608;2023-01-08T17:51:20;1013.85;;;29.12;49.84
37170;BME280;23062;13.952;100.608;2023-01-08T17:55:47;1013.80;;;29.12;49.76
37170;BME280;23062;13.952;100.608;2023-01-08T18:00:14;1013.79;;;29.12;49.74
37170;BME280;23062;13.952;100.608;2023-01-08T18:04:41;1013.73;;;29.11;49.68
37170;BME280;23062;13.952;100.608;2023-01-08T18:09:09;1013.71;;;29.11;49.63
37170;BME280;23062;13.952;100.608;2023-01-08T18:13:37;1013.68;;;29.11;49.63
37170;BME280;23062;13.952;100.608;2023-01-08T18:18:04;1013.62;;;29.10;49.63
37170;BME280;23062;13.952;100.608;2023-01-08T18:22:30;1013.62;;;29.10;49.61
37170;BME280;23062;13.952;100.608;2023-01-08T18:26:57;1013.57;;;29.09;49.71
37170;BME280;23062;13.952;100.608;2023-01-08T18:31:23;1013.54;;;29.08;49.73
37170;BME280;23062;13.952;100.608;2023-01-08T18:35:49;1013.49;;;29.09;49.74
37170;BME280;23062;13.952;100.608;2023-01-08T18:40:16;1013.44;;;29.08;49.76
37170;BME280;23062;13.952;100.608;2023-01-08T18:44:42;1013.40;;;29.07;49.82
37170;BME280;23062;13.952;100.608;2023-01-08T18:49:09;1013.37;;;29.07;49.87
37170;BME280;23062;13.952;100.608;2023-01-08T18:53:35;1013.33;;;29.07;49.90
37170;BME280;23062;13.952;100.608;2023-01-08T18:58:02;1013.28;;;29.07;49.94
37170;BME280;23062;13.952;100.608;2023-01-08T19:02:28;1013.25;;;29.05;49.90
37170;BME280;23062;13.952;100.608;2023-01-08T19:06:56;1013.21;;;29.05;50.00
37170;BME280;23062;13.952;100.608;2023-01-08T19:11:29;1013.14;;;29.06;50.03
37170;BME280;23062;13.952;100.608;2023-01-08T19:15:55;1013.11;;;29.06;50.06
37170;BME280;23062;13.952;100.608;2023-01-08T19:20:22;1013.06;;;29.06;50.08
37170;BME280;23062;13.952;100.608;2023-01-08T19:24:49;1013.00;;;29.06;50.15
37170;BME280;23062;13.952;100.608;2023-01-08T19:29:15;1012.94;;;29.06;50.22
37170;BME280;23062;13.952;100.608;2023-01-08T19:33:41;1012.89;;;29.05;50.23
37170;BME280;23062;13.952;100.608;2023-01-08T19:38:08;1012.88;;;29.05;50.21
37170;BME280;23062;13.952;100.608;2023-01-08T19:42:35;1012.88;;;29.06;50.21
37170;BME280;23062;13.952;100.608;2023-01-08T19:47:22;1012.78;;;29.07;50.21
37170;BME280;23062;13.952;100.608;2023-01-08T19:51:48;1012.74;;;29.05;50.23
37170;BME280;23062;13.952;100.608;2023-01-08T19:56:16;1012.70;;;29.04;50.32
37170;BME280;23062;13.952;100.608;2023-01-08T20:00:42;1012.68;;;29.04;50.30
37170;BME280;23062;13.952;100.608;2023-01-08T20:05:10;1012.64;;;29.03;50.35
37170;BME280;23062;13.952;100.608;2023-01-08T20:09:36;1012.59;;;29.03;50.34
37170;BME280;23062;13.952;100.608;2023-01-08T20:14:02;1012.61;;;29.03;50.39
37170;BME280;23062;13.952;100.608;2023-01-08T20:18:29;1012.57;;;29.03;50.39
37170;BME280;23062;13.952;100.608;2023-01-08T20:22:56;1012.53;;;28.96;50.24
37170;BME280;23062;13.952;100.608;2023-01-08T20:27:22;1012.53;;;28.89;50.34
37170;BME280;23062;13.952;100.608;2023-01-08T20:31:49;1012.51;;;28.85;50.43
37170;BME280;23062;13.952;100.608;2023-01-08T20:36:19;1012.46;;;28.77;50.64
37170;BME280;23062;13.952;100.608;2023-01-08T20:40:49;1012.46;;;28.72;50.70
37170;BME280;23062;13.952;100.608;2023-01-08T20:45:20;1012.47;;;28.70;50.55
37170;BME280;23062;13.952;100.608;2023-01-08T20:49:46;1012.49;;;28.67;50.49
37170;BME280;23062;13.952;100.608;2023-01-08T20:54:14;1012.50;;;28.59;50.77
37170;BME280;23062;13.952;100.608;2023-01-08T20:58:42;1012.48;;;28.61;50.74
37170;BME280;23062;13.952;100.608;2023-01-08T21:03:09;1012.47;;;28.53;50.89
37170;BME280;23062;13.952;100.608;2023-01-08T21:07:36;1012.44;;;28.44;51.27
37170;BME280;23062;13.952;100.608;2023-01-08T21:12:02;1012.47;;;28.33;50.88
37170;BME280;23062;13.952;100.608;2023-01-08T21:16:30;1012.46;;;28.34;50.72
37170;BME280;23062;13.952;100.608;2023-01-08T21:21:03;1012.47;;;28.32;50.68
37170;BME280;23062;13.952;100.608;2023-01-08T21:25:29;1012.46;;;28.29;50.41
37170;BME280;23062;13.952;100.608;2023-01-08T21:29:57;1012.48;;;28.26;50.68
37170;BME280;23062;13.952;100.608;2023-01-08T21:34:24;1012.49;;;28.29;50.51
37170;BME280;23062;13.952;100.608;2023-01-08T21:38:52;1012.50;;;28.25;50.79
37170;BME280;23062;13.952;100.608;2023-01-08T21:43:19;1012.53;;;28.23;52.11
37170;BME280;23062;13.952;100.608;2023-01-08T21:48:04;1012.58;;;28.22;51.72
37170;BME280;23062;13.952;100.608;2023-01-08T21:52:30;1012.60;;;28.20;52.04
37170;BME280;23062;13.952;100.608;2023-01-08T21:57:14;1012.67;;;28.21;53.07
37170;BME280;23062;13.952;100.608;2023-01-08T22:01:40;1012.68;;;28.14;52.06
37170;BME280;23062;13.952;100.608;2023-01-08T22:06:07;1012.69;;;28.12;52.45
37170;BME280;23062;13.952;100.608;2023-01-08T22:10:34;1012.74;;;28.06;52.26
37170;BME280;23062;13.952;100.608;2023-01-08T22:15:01;1012.71;;;28.06;51.87
37170;BME280;23062;13.952;100.608;2023-01-08T22:19:27;1012.73;;;28.03;52.72
37170;BME280;23062;13.952;100.608;2023-01-08T22:23:55;1012.77;;;27.98;52.36
37170;BME280;23062;13.952;100.608;2023-01-08T22:28:21;1012.85;;;27.93;52.71
37170;BME280;23062;13.952;100.608;2023-01-08T22:32:48;1012.92;;;27.96;52.61
37170;BME280;23062;13.952;100.608;2023-01-08T22:37:14;1012.94;;;27.97;52.68
37170;BME280;23062;13.952;100.608;2023-01-08T22:41:42;1013.01;;;28.05;52.60
37170;BME280;23062;13.952;100.608;2023-01-08T22:46:10;1013.02;;;28.08;52.61
37170;BME280;23062;13.952;100.608;2023-01-08T22:50:36;1013.07;;;28.10;52.62
37170;BME280;23062;13.952;100.608;2023-01-08T22:55:04;1013.12;;;28.33;51.56
37170;BME280;23062;13.952;100.608;2023-01-08T22:59:31;1013.18;;;28.46;51.32
37170;BME280;23062;13.952;100.608;2023-01-08T23:03:59;1013.23;;;28.51;51.09
37170;BME280;23062;13.952;100.608;2023-01-08T23:08:25;1013.31;;;28.53;50.89
37170;BME280;23062;13.952;100.608;2023-01-08T23:12:55;1013.35;;;28.53;50.61
37170;BME280;23062;13.952;100.608;2023-01-08T23:17:22;1013.43;;;28.53;50.41
37170;BME280;23062;13.952;100.608;2023-01-08T23:21:48;1013.43;;;28.53;50.12
37170;BME280;23062;13.952;100.608;2023-01-08T23:26:28;1013.50;;;28.54;50.46
37170;BME280;23062;13.952;100.608;2023-01-08T23:30:50;1013.55;;;28.54;50.64
37170;BME280;23062;13.952;100.608;2023-01-08T23:35:16;1013.58;;;28.53;50.61
37170;BME280;23062;13.952;100.608;2023-01-08T23:39:43;1013.67;;;28.53;50.55
37170;BME280;23062;13.952;100.608;2023-01-08T23:44:13;1013.72;;;28.52;51.19
37170;BME280;23062;13.952;100.608;2023-01-08T23:48:40;1013.77;;;28.50;51.35
37170;BME280;23062;13.952;100.608;2023-01-08T23:53:13;1013.83;;;28.48;51.28
37170;BME280;23062;13.952;100.608;2023-01-08T23:57:40;1013.88;;;28.48;50.91
